• Join FlightAware (Why Join?)
  • Login
  • US Flag 
06:58AM EDT


 

Airport Tracker/Info


-or-


 

Live Flight TrackerFlight Track Log ✈ SKW5564 ✈ 08-Jul-2013 ✈ KSLC - KDEN

Flight Track Log - Related Links

Times and Time Zones

All times are in EDT time to prevent confusion due to time zone crossing. See the SKW5564 flight status page for this flight to view local times or setup timezone preferences in your user account.

Time Position Orientation Groundspeed Altitude Reporting Facility
EDT Latitude Longitude Course Direction KTS MPH feet Rate Location/Type
03:59PM 41.0135 -112.0704 108° East  Level FlightAware Approximate
04:00PM 40.9726 -111.9069 103° East  Level FlightAware Approximate
04:01PM 40.9421 -111.7391 103° East  Level FlightAware Approximate
04:02PM 40.9167 -111.5705 90° East  Level FlightAware Approximate
04:03PM 40.9000 -111.4004 90° East  Level FlightAware Approximate
04:04PM 40.8778 -111.2305 98° East  Level FlightAware Approximate
04:05PM 40.8599 -111.0597 98° East  Level FlightAware Approximate
04:06PM 40.8390 -110.8896 101° East  Level FlightAware Approximate
04:07PM 40.8161 -110.7200 100° East  Level FlightAware Approximate
04:08PM 40.7939 -110.5503 99° East  Level FlightAware Approximate
04:09PM 40.7727 -110.3803 99° East  Level FlightAware Approximate
04:10PM 40.7513 -110.2105 99° East  Level FlightAware Approximate
04:11PM 40.7340 -110.0400 97° East  Level FlightAware Approximate
04:12PM 40.7248 -109.8684 94° East  Level FlightAware Approximate
04:13PM 40.7149 -109.6969 97° East  Level FlightAware Approximate
04:14PM 40.6995 -109.5261 97° East  Level FlightAware Approximate
04:15PM 40.6838 -109.3554 97° East  Level FlightAware Approximate
04:16PM 40.6723 -109.1841 95° East  Level FlightAware Approximate
04:17PM 40.6601 -109.0130 96° East  Level FlightAware Approximate
04:18PM 40.6469 -108.8420 96° East  Level FlightAware Approximate
04:19PM 40.6335 -108.6711 96° East  Level FlightAware Approximate
04:20PM 40.6199 -108.5003 96° East  Level FlightAware Approximate
04:21PM 40.6060 -108.3295 96° East  Level FlightAware Approximate
04:22PM 40.5918 -108.1588 96° East  Level FlightAware Approximate
04:23PM 40.5774 -107.9882 96° East  Level FlightAware Approximate
04:24PM 40.5627 -107.8176 96° East  Level FlightAware Approximate
04:25PM 40.5478 -107.6471 97° East  Level FlightAware Approximate
04:26PM 40.5327 -107.4767 97° East  Level FlightAware Approximate
04:27PM 40.5173 -107.3064 97° East  Level FlightAware Approximate
04:28PM 40.5056 -107.1356 95° East  Level FlightAware Approximate
04:29PM 40.4938 -106.9648 95° East  Level FlightAware Approximate
04:30PM 40.4818 -106.7941 95° East  Level FlightAware Approximate
04:31PM 40.4696 -106.6235 95° East  Level FlightAware Approximate
04:32PM 40.4667 -106.4523 90° East  Level FlightAware Approximate
04:33PM 40.4487 -106.2918 94° East  Level FlightAware Approximate
04:34PM 40.4398 -106.1209 94° East  Level FlightAware Approximate
04:35PM 40.4292 -105.9503 99° East  Level FlightAware Approximate
04:36PM 40.4081 -105.7813 99° East  Level FlightAware Approximate
04:37PM 40.3761 -105.6182 98° East  Level FlightAware Approximate
04:38PM 40.3502 -105.4508 105° East  Level FlightAware Approximate
04:39PM 40.2776 -105.3127 128° Southeast  Level FlightAware Approximate
04:40PM 40.1990 -105.1823 143° Southeast  Level FlightAware Approximate
04:41PM 40.1110 -105.0571 128° Southeast  Level FlightAware Approximate
04:42PM 40.0305 -104.9230 128° Southeast  Level FlightAware Approximate
04:43PM 39.9441 -104.8000 180° South  Level FlightAware Approximate
04:44PM 39.8138 -104.8000 180° South  Level FlightAware Approximate
04:45PM 39.8617 -104.6732 180° South  Level Estimated
04:46PM 39.8617 -104.6732 185° South  Level Estimated
04:47PM 39.8617 -104.6732 14° North  Level Estimated
04:48PM 39.8617 -104.6732 193° South  Level Estimated
04:49PM 39.8617 -104.6732 18° North  Level Estimated
04:50PM 39.8617 -104.6732 North  Level Estimated
04:51PM 39.8617 -104.6732 North  Level Estimated
04:52PM 39.8617 -104.6732 North  Level Estimated
04:53PM 39.8617 -104.6732 North  Level Estimated
04:54PM 39.8617 -104.6732 North  Level Estimated
04:55PM 39.8617 -104.6732 North  Level Estimated
04:56PM 39.8617 -104.6732 North  Level Estimated
04:57PM 39.8617 -104.6732 North  Level Estimated
04:58PM 39.8617 -104.6732 North  Level Estimated